createdAt,value
2017-06-23T00:00:44.519Z,92.60
2017-06-23T00:03:13.610Z,92.50
2017-06-23T00:05:42.667Z,92.70
2017-06-23T00:08:11.077Z,92.70
2017-06-23T00:10:40.173Z,92.90
2017-06-23T00:13:09.235Z,92.50
2017-06-23T00:15:37.543Z,92.50
2017-06-23T00:18:05.887Z,92.60
2017-06-23T00:20:34.176Z,92.60
2017-06-23T00:23:02.475Z,93.10
2017-06-23T00:25:30.846Z,92.80
2017-06-23T00:27:59.226Z,92.90
2017-06-23T00:30:27.615Z,93.00
2017-06-23T00:32:56.711Z,92.70
2017-06-23T00:35:25.762Z,92.80
2017-06-23T00:37:54.094Z,92.80
2017-06-23T00:40:22.396Z,92.90
2017-06-23T00:42:50.731Z,93.30
2017-06-23T00:45:19.074Z,93.00
2017-06-23T00:47:47.378Z,93.00
2017-06-23T00:50:15.665Z,93.00
2017-06-23T00:52:44.883Z,93.00
2017-06-23T00:55:13.174Z,93.00
2017-06-23T00:57:41.471Z,93.00
2017-06-23T01:00:09.899Z,93.00
2017-06-23T01:02:38.954Z,93.20
2017-06-23T01:05:07.271Z,93.50
2017-06-23T01:07:36.371Z,93.30
2017-06-23T01:10:05.445Z,93.30
2017-06-23T01:12:33.943Z,93.30
2017-06-23T01:15:03.047Z,93.60
2017-06-23T01:17:32.135Z,93.20
2017-06-23T01:20:01.235Z,93.50
2017-06-23T01:22:30.309Z,93.20
2017-06-23T01:24:58.603Z,93.20
2017-06-23T01:27:27.799Z,93.30
2017-06-23T01:29:56.894Z,93.40
2017-06-23T01:32:26.003Z,93.40
2017-06-23T01:34:55.068Z,93.40
2017-06-23T01:37:23.391Z,93.40
2017-06-23T01:39:51.687Z,93.40
2017-06-23T01:42:20.102Z,93.60
2017-06-23T01:44:48.482Z,93.20
2017-06-23T01:47:16.871Z,93.40
2017-06-23T01:49:45.939Z,93.70
2017-06-23T01:52:14.637Z,93.30
2017-06-23T01:54:43.083Z,93.40
2017-06-23T01:57:12.181Z,93.80
2017-06-23T01:59:41.233Z,93.60
2017-06-23T02:02:09.529Z,93.60
2017-06-23T02:04:37.933Z,93.40
2017-06-23T02:07:06.987Z,93.60
2017-06-23T02:09:35.314Z,93.30
2017-06-23T02:12:03.597Z,93.50
2017-06-23T02:14:31.891Z,93.40
2017-06-23T02:17:00.337Z,93.30
2017-06-23T02:19:29.380Z,93.20
2017-06-23T02:21:57.710Z,93.20
2017-06-23T02:24:26.761Z,93.20
2017-06-23T02:26:55.264Z,93.20
2017-06-23T02:29:23.645Z,93.10
2017-06-23T02:31:52.041Z,92.90
2017-06-23T02:34:21.238Z,92.90
2017-06-23T02:36:50.324Z,93.00
2017-06-23T02:39:18.655Z,93.20
2017-06-23T02:41:46.983Z,93.40
2017-06-23T02:44:15.362Z,93.30
2017-06-23T02:46:44.495Z,93.60
2017-06-23T02:49:12.825Z,93.30
2017-06-23T02:51:41.108Z,93.20
2017-06-23T02:54:09.490Z,93.30
2017-06-23T02:56:38.546Z,92.70
2017-06-23T02:59:06.840Z,92.90
2017-06-23T03:01:35.234Z,93.10
2017-06-23T03:04:03.610Z,93.20
2017-06-23T03:06:31.944Z,93.00
2017-06-23T03:09:00.270Z,93.00
2017-06-23T03:11:28.650Z,92.90
2017-06-23T03:13:57.024Z,93.10
2017-06-23T03:16:25.310Z,93.00
2017-06-23T03:18:54.409Z,93.00
2017-06-23T03:21:23.449Z,92.90
2017-06-23T03:23:51.744Z,92.70
2017-06-23T03:26:20.128Z,92.70
2017-06-23T03:28:48.417Z,92.80
2017-06-23T03:31:16.798Z,92.70
2017-06-23T03:33:45.083Z,92.50
2017-06-23T03:36:13.369Z,92.40
2017-06-23T03:38:41.687Z,92.50
2017-06-23T03:41:09.957Z,92.30
2017-06-23T03:43:38.273Z,92.40
2017-06-23T03:46:06.596Z,92.50
2017-06-23T03:48:34.884Z,92.40
2017-06-23T03:51:03.280Z,92.40
2017-06-23T03:53:32.383Z,92.30
2017-06-23T03:56:01.426Z,92.70
2017-06-23T03:58:29.707Z,92.30
2017-06-23T04:00:58.132Z,92.60
2017-06-23T04:03:27.231Z,92.60
2017-06-23T04:05:56.320Z,92.00
2017-06-23T04:08:25.370Z,92.70
2017-06-23T04:10:53.689Z,92.30
2017-06-23T04:13:22.020Z,92.20
2017-06-23T04:15:50.302Z,92.20
2017-06-23T04:18:18.588Z,92.40
2017-06-23T04:20:46.989Z,92.00
2017-06-23T04:23:15.377Z,91.80
2017-06-23T04:25:43.682Z,91.50
2017-06-23T04:28:11.957Z,91.30
2017-06-23T04:30:40.283Z,91.30
2017-06-23T04:33:09.457Z,91.20
2017-06-23T04:35:37.777Z,91.20
2017-06-23T04:38:06.063Z,91.40
2017-06-23T04:40:34.394Z,91.60
2017-06-23T04:43:02.723Z,91.80
2017-06-23T04:45:31.013Z,91.80
2017-06-23T04:47:59.299Z,91.80
2017-06-23T04:50:27.702Z,91.50
2017-06-23T04:52:56.026Z,91.00
2017-06-23T04:55:24.394Z,91.30
2017-06-23T04:57:52.735Z,91.00
2017-06-23T05:00:21.005Z,91.20
2017-06-23T05:02:49.294Z,90.80
2017-06-23T05:05:17.716Z,91.20
2017-06-23T05:07:46.915Z,91.70
2017-06-23T05:10:16.097Z,91.20
2017-06-23T05:12:44.487Z,91.40
2017-06-23T05:15:13.577Z,91.40
2017-06-23T05:17:41.862Z,91.30
2017-06-23T05:20:11.050Z,91.60
2017-06-23T05:22:39.522Z,91.60
2017-06-23T05:25:07.794Z,91.70
2017-06-23T05:27:36.186Z,91.40
2017-06-23T05:30:04.576Z,91.10
2017-06-23T05:32:33.658Z,90.90
2017-06-23T05:35:02.038Z,90.90
2017-06-23T05:37:30.326Z,91.60
2017-06-23T05:39:59.419Z,90.40
2017-06-23T05:42:28.605Z,90.00
2017-06-23T05:44:56.898Z,90.10
2017-06-23T05:47:25.991Z,90.00
2017-06-23T05:49:55.083Z,90.20
2017-06-23T05:52:23.387Z,90.20
2017-06-23T05:54:52.499Z,90.20
2017-06-23T05:57:21.544Z,88.70
2017-06-23T05:59:49.834Z,88.60
2017-06-23T06:02:18.155Z,89.40
2017-06-23T06:04:46.592Z,90.40
2017-06-23T06:07:14.879Z,90.50
2017-06-23T06:09:43.176Z,90.60
2017-06-23T06:12:12.310Z,90.90
2017-06-23T06:14:40.630Z,91.20
2017-06-23T06:17:08.913Z,91.20
2017-06-23T06:19:38.025Z,92.00
2017-06-23T06:22:07.365Z,92.00
2017-06-23T06:24:36.463Z,91.50
2017-06-23T06:27:05.642Z,91.90
2017-06-23T06:29:34.859Z,91.70
2017-06-23T06:32:04.034Z,92.10
2017-06-23T06:34:33.151Z,91.50
2017-06-23T06:37:01.440Z,91.50
2017-06-23T06:39:29.726Z,91.60
2017-06-23T06:41:58.838Z,91.80
2017-06-23T06:44:28.009Z,91.90
2017-06-23T06:46:57.070Z,91.80
2017-06-23T06:49:25.462Z,91.70
2017-06-23T06:51:53.854Z,91.90
2017-06-23T06:54:22.129Z,92.00
2017-06-23T06:56:51.218Z,92.20
2017-06-23T06:59:19.607Z,92.10
2017-06-23T07:01:48.663Z,92.50
2017-06-23T07:04:17.079Z,92.20
2017-06-23T07:06:46.277Z,91.60
2017-06-23T07:09:15.361Z,91.60
2017-06-23T07:11:43.655Z,91.60
2017-06-23T07:14:12.842Z,92.00
2017-06-23T07:16:41.131Z,92.00
2017-06-23T07:19:09.414Z,92.30
2017-06-23T07:21:37.751Z,92.10
2017-06-23T07:24:06.133Z,91.90
2017-06-23T07:26:34.432Z,91.80
2017-06-23T07:29:02.806Z,91.60
2017-06-23T07:31:31.143Z,91.70
2017-06-23T07:33:59.479Z,91.30
2017-06-23T07:36:28.565Z,90.80
2017-06-23T07:38:57.775Z,91.30
2017-06-23T07:41:26.870Z,91.20
2017-06-23T07:43:56.064Z,91.30
2017-06-23T07:46:25.155Z,91.40
2017-06-23T07:48:54.256Z,92.00
2017-06-23T07:51:23.436Z,91.40
2017-06-23T07:53:51.728Z,91.50
2017-06-23T07:56:20.921Z,91.10
2017-06-23T07:58:50.009Z,90.40
2017-06-23T08:01:18.393Z,90.30
2017-06-23T08:03:46.769Z,90.10
2017-06-23T08:06:15.115Z,90.00
2017-06-23T08:08:43.394Z,90.10
2017-06-23T08:11:11.677Z,90.60
2017-06-23T08:13:40.033Z,90.80
2017-06-23T08:16:08.326Z,90.40
2017-06-23T08:18:36.647Z,90.50
2017-06-23T08:21:05.734Z,90.60
2017-06-23T08:23:34.838Z,90.20
2017-06-23T08:26:03.944Z,90.70
2017-06-23T08:28:33.117Z,90.40
2017-06-23T08:31:01.490Z,90.30
2017-06-23T08:33:29.774Z,88.50
2017-06-23T08:35:58.962Z,89.30
2017-06-23T08:38:27.292Z,88.50
2017-06-23T08:40:55.570Z,88.10
2017-06-23T08:43:23.998Z,86.70
2017-06-23T08:45:52.378Z,87.60
2017-06-23T08:48:20.662Z,85.10
2017-06-23T08:50:49.758Z,84.00
2017-06-23T08:53:18.098Z,83.30
2017-06-23T08:55:46.392Z,80.60
2017-06-23T08:58:14.666Z,80.40
2017-06-23T09:00:43.007Z,82.50
2017-06-23T09:03:11.292Z,79.80
2017-06-23T09:05:39.574Z,80.10
2017-06-23T09:08:07.890Z,80.40
2017-06-23T09:10:36.944Z,79.90
2017-06-23T09:13:05.253Z,79.80
2017-06-23T09:15:34.320Z,80.50
2017-06-23T09:18:02.702Z,80.30
2017-06-23T09:20:31.035Z,79.30
2017-06-23T09:23:00.133Z,79.70
2017-06-23T09:25:29.294Z,79.10
2017-06-23T09:27:57.602Z,79.10
2017-06-23T09:30:25.922Z,79.20
2017-06-23T09:32:54.198Z,77.50
2017-06-23T09:35:22.470Z,75.50
2017-06-23T09:37:50.797Z,76.50
2017-06-23T09:40:19.188Z,76.90
2017-06-23T09:42:47.554Z,75.30
2017-06-23T09:45:15.891Z,73.30
2017-06-23T09:47:44.262Z,73.70
2017-06-23T09:50:12.538Z,72.60
2017-06-23T09:52:40.850Z,73.40
2017-06-23T09:55:10.036Z,71.70
2017-06-23T09:57:38.360Z,71.70
2017-06-23T10:00:06.795Z,73.10
2017-06-23T10:02:35.079Z,74.30
2017-06-23T10:05:04.153Z,71.30
2017-06-23T10:07:32.551Z,71.20
2017-06-23T10:10:01.600Z,71.70
2017-06-23T10:12:30.002Z,71.50
2017-06-23T10:14:58.281Z,70.40
2017-06-23T10:17:26.585Z,71.70
2017-06-23T10:19:55.675Z,71.50
2017-06-23T10:22:24.759Z,73.00
2017-06-23T10:24:53.860Z,72.40
2017-06-23T10:27:22.941Z,72.30
2017-06-23T10:29:51.260Z,72.20
2017-06-23T10:32:19.599Z,71.30
2017-06-23T10:34:47.860Z,70.80
2017-06-23T10:37:16.251Z,71.60
2017-06-23T10:39:45.293Z,70.60
2017-06-23T10:42:14.299Z,70.50
2017-06-23T10:44:42.618Z,69.00
2017-06-23T10:47:11.702Z,70.60
2017-06-23T10:49:39.994Z,69.80
2017-06-23T10:52:08.298Z,71.00
2017-06-23T10:54:36.583Z,72.40
2017-06-23T10:57:05.083Z,71.00
2017-06-23T10:59:34.179Z,70.50
2017-06-23T11:02:02.490Z,70.50
2017-06-23T11:04:30.861Z,70.40
2017-06-23T11:06:59.235Z,70.20
2017-06-23T11:09:28.342Z,71.00
2017-06-23T11:11:57.433Z,70.30
2017-06-23T11:14:26.598Z,70.80
2017-06-23T11:16:54.990Z,70.80
2017-06-23T11:19:23.266Z,69.90
2017-06-23T11:21:51.556Z,69.30
2017-06-23T11:24:20.651Z,68.60
2017-06-23T11:26:49.723Z,69.40
2017-06-23T11:29:18.042Z,69.40
2017-06-23T11:31:46.317Z,70.60
2017-06-23T11:34:14.594Z,70.50
2017-06-23T11:36:42.918Z,70.90
2017-06-23T11:39:11.190Z,73.00
2017-06-23T11:41:39.468Z,72.70
2017-06-23T11:44:07.785Z,72.60
2017-06-23T11:46:36.830Z,72.00
2017-06-23T11:49:05.107Z,71.80
2017-06-23T11:51:33.430Z,73.40
2017-06-23T11:54:02.510Z,72.60
2017-06-23T11:56:31.708Z,71.30
2017-06-23T11:58:59.982Z,71.20
2017-06-23T12:01:28.363Z,71.70
2017-06-23T12:03:56.743Z,71.80
2017-06-23T12:06:25.022Z,71.20
2017-06-23T12:08:54.075Z,71.40
2017-06-23T12:11:22.396Z,71.20
2017-06-23T12:13:51.438Z,71.90
2017-06-23T12:16:19.754Z,71.70
2017-06-23T12:18:48.073Z,72.30
2017-06-23T12:21:16.360Z,71.20
2017-06-23T12:23:44.711Z,71.10
2017-06-23T12:26:13.004Z,70.80
2017-06-23T12:28:41.360Z,72.20
2017-06-23T12:31:09.736Z,72.10
2017-06-23T12:33:38.013Z,72.40
2017-06-23T12:36:06.398Z,71.50
2017-06-23T12:38:34.683Z,71.80
2017-06-23T12:41:03.065Z,71.50
2017-06-23T12:43:31.389Z,70.70
2017-06-23T12:45:59.719Z,71.70
2017-06-23T12:48:28.771Z,71.40
2017-06-23T12:50:57.103Z,71.00
2017-06-23T12:53:26.150Z,71.30
2017-06-23T12:55:54.563Z,71.30
2017-06-23T12:58:22.934Z,69.70
2017-06-23T13:00:51.263Z,70.50
2017-06-23T13:03:19.587Z,70.10
2017-06-23T13:05:47.972Z,69.90
2017-06-23T13:08:16.259Z,69.70
2017-06-23T13:10:45.447Z,69.30
2017-06-23T13:13:13.725Z,69.20
2017-06-23T13:15:42.914Z,69.90
2017-06-23T13:18:11.324Z,69.80
2017-06-23T13:20:40.379Z,70.70
2017-06-23T13:23:08.710Z,70.60
2017-06-23T13:25:36.986Z,70.90
2017-06-23T13:28:05.262Z,69.40
2017-06-23T13:30:33.598Z,68.70
2017-06-23T13:33:01.983Z,69.10
2017-06-23T13:35:30.354Z,69.10
2017-06-23T13:37:58.634Z,68.90
2017-06-23T13:40:27.006Z,69.70
2017-06-23T13:42:55.391Z,69.00
2017-06-23T13:45:23.666Z,70.60
2017-06-23T13:47:52.052Z,69.00
2017-06-23T13:50:20.361Z,70.00
2017-06-23T13:52:48.697Z,69.30
2017-06-23T13:55:17.043Z,68.50
2017-06-23T13:57:45.349Z,68.20
2017-06-23T14:00:13.631Z,68.10
2017-06-23T14:02:41.967Z,68.40
2017-06-23T14:05:10.286Z,67.20
2017-06-23T14:07:38.559Z,66.70
2017-06-23T14:10:06.933Z,68.50
2017-06-23T14:12:35.219Z,67.30
2017-06-23T14:15:03.593Z,67.30
2017-06-23T14:17:31.925Z,65.80
2017-06-23T14:20:00.250Z,64.50
2017-06-23T14:22:28.540Z,64.30
2017-06-23T14:24:56.925Z,65.70
2017-06-23T14:27:25.211Z,65.40
2017-06-23T14:29:53.527Z,64.70
2017-06-23T14:32:21.863Z,65.40
2017-06-23T14:34:50.233Z,65.50
2017-06-23T14:37:18.563Z,65.40
2017-06-23T14:39:46.890Z,65.20
2017-06-23T14:42:15.987Z,65.10
2017-06-23T14:44:44.372Z,64.90
2017-06-23T14:47:12.681Z,64.90
2017-06-23T14:49:40.994Z,63.90
2017-06-23T14:52:09.294Z,64.70
2017-06-23T14:54:37.632Z,65.20
2017-06-23T14:57:05.946Z,64.20
2017-06-23T14:59:34.310Z,64.90
2017-06-23T15:02:02.634Z,65.80
2017-06-23T15:04:30.915Z,65.40
2017-06-23T15:06:59.241Z,64.90
2017-06-23T15:09:27.522Z,64.10
2017-06-23T15:11:55.853Z,62.70
2017-06-23T15:14:24.243Z,62.00
2017-06-23T15:16:52.591Z,63.20
2017-06-23T15:19:20.901Z,63.10
2017-06-23T15:21:49.956Z,63.30
2017-06-23T15:24:18.267Z,64.00
2017-06-23T15:26:46.632Z,63.10
2017-06-23T15:29:14.907Z,64.10
2017-06-23T15:31:43.203Z,64.10
2017-06-23T15:34:11.523Z,63.30
2017-06-23T15:36:40.843Z,63.60
2017-06-23T15:39:09.141Z,63.10
2017-06-23T15:41:37.435Z,63.90
2017-06-23T15:44:05.757Z,64.00
2017-06-23T15:46:34.063Z,64.70
2017-06-23T15:49:02.555Z,64.30
2017-06-23T15:51:30.830Z,64.10
2017-06-23T15:53:59.152Z,60.50
2017-06-23T15:56:27.426Z,58.50
2017-06-23T15:58:55.766Z,57.10
2017-06-23T16:01:24.906Z,52.90
2017-06-23T16:03:53.187Z,53.20
2017-06-23T16:06:22.151Z,52.20
2017-06-23T16:08:51.199Z,53.80
2017-06-23T16:11:19.502Z,53.60
2017-06-23T16:13:47.877Z,55.50
2017-06-23T16:16:16.166Z,56.80
2017-06-23T16:18:44.547Z,57.00
2017-06-23T16:21:12.822Z,56.70
2017-06-23T16:23:41.923Z,58.10
2017-06-23T16:26:11.002Z,56.10
2017-06-23T16:28:45.282Z,56.10
2017-06-23T16:31:13.632Z,55.60
2017-06-23T16:33:42.824Z,53.50
2017-06-23T16:36:11.189Z,53.40
2017-06-23T16:38:40.296Z,54.00
2017-06-23T16:41:08.579Z,54.00
2017-06-23T16:43:36.927Z,51.90
2017-06-23T16:46:05.259Z,51.90
2017-06-23T16:48:33.615Z,51.20
2017-06-23T16:51:02.697Z,51.30
2017-06-23T16:53:31.751Z,53.00
2017-06-23T16:56:00.149Z,53.00
2017-06-23T16:58:28.453Z,54.70
2017-06-23T17:00:57.561Z,55.80
2017-06-23T17:03:25.839Z,55.80
2017-06-23T17:05:54.114Z,55.60
2017-06-23T17:08:22.558Z,55.40
2017-06-23T17:10:50.962Z,56.90
2017-06-23T17:13:20.046Z,57.50
2017-06-23T17:15:48.424Z,57.50
2017-06-23T17:18:17.506Z,56.30
2017-06-23T17:20:45.782Z,56.90
2017-06-23T17:23:14.121Z,56.80
2017-06-23T17:25:42.430Z,57.50
2017-06-23T17:28:10.880Z,58.10
2017-06-23T17:30:39.336Z,58.10
2017-06-23T17:33:07.626Z,59.80
2017-06-23T17:35:35.954Z,60.60
2017-06-23T17:38:04.329Z,60.20
2017-06-23T17:40:32.676Z,60.10
2017-06-23T17:43:01.872Z,60.30
2017-06-23T17:45:30.919Z,61.40
2017-06-23T17:47:59.193Z,60.60
2017-06-23T17:50:28.295Z,60.70
2017-06-23T17:52:56.638Z,60.60
2017-06-23T17:55:24.918Z,60.90
2017-06-23T17:57:53.245Z,60.00
2017-06-23T18:00:22.313Z,60.00
2017-06-23T18:02:50.690Z,60.00
2017-06-23T18:05:19.209Z,61.50
2017-06-23T18:07:47.497Z,59.60
2017-06-23T18:10:15.874Z,58.70
2017-06-23T18:12:44.150Z,58.90
2017-06-23T18:15:12.496Z,59.30
2017-06-23T18:17:40.769Z,59.40
2017-06-23T18:20:09.051Z,59.00
2017-06-23T18:22:37.559Z,59.10
2017-06-23T18:25:05.837Z,59.70
2017-06-23T18:27:34.119Z,58.00
2017-06-23T18:30:02.447Z,58.00
2017-06-23T18:32:30.722Z,58.60
2017-06-23T18:34:59.011Z,58.40
2017-06-23T18:37:27.354Z,58.10
2017-06-23T18:39:56.400Z,58.10
2017-06-23T18:42:24.700Z,57.90
2017-06-23T18:44:53.150Z,57.80
2017-06-23T18:47:21.446Z,57.80
2017-06-23T18:49:50.495Z,58.70
2017-06-23T18:52:18.854Z,58.70
2017-06-23T18:54:47.139Z,57.50
2017-06-23T18:57:15.546Z,57.70
2017-06-23T18:59:43.866Z,59.00
2017-06-23T19:02:12.159Z,58.00
2017-06-23T19:04:40.453Z,59.50
2017-06-23T19:07:08.768Z,58.30
2017-06-23T19:09:37.808Z,59.00
2017-06-23T19:12:06.130Z,59.20
2017-06-23T19:14:34.471Z,61.50
2017-06-23T19:17:02.790Z,60.60
2017-06-23T19:19:31.062Z,61.60
2017-06-23T19:21:59.385Z,60.60
2017-06-23T19:24:27.666Z,62.40
2017-06-23T19:26:55.959Z,63.80
2017-06-23T19:29:24.283Z,63.40
2017-06-23T19:31:53.326Z,64.10
2017-06-23T19:34:21.651Z,63.60
2017-06-23T19:36:50.117Z,66.10
2017-06-23T19:39:18.381Z,66.60
2017-06-23T19:41:46.670Z,66.70
2017-06-23T19:44:16.408Z,67.60
2017-06-23T19:46:44.778Z,68.20
2017-06-23T19:49:13.064Z,68.30
2017-06-23T19:51:41.378Z,68.40
2017-06-23T19:54:09.667Z,69.40
2017-06-23T19:56:38.086Z,70.10
2017-06-23T19:59:06.362Z,70.40
2017-06-23T20:01:34.711Z,70.20
2017-06-23T20:04:03.064Z,70.70
2017-06-23T20:06:31.351Z,72.60
2017-06-23T20:08:59.837Z,72.10
2017-06-23T20:11:28.154Z,71.70
2017-06-23T20:13:56.503Z,72.80
2017-06-23T20:16:24.870Z,73.20
2017-06-23T20:18:53.245Z,72.20
2017-06-23T20:21:21.727Z,73.10
2017-06-23T20:23:50.046Z,74.60
2017-06-23T20:26:18.387Z,73.30
2017-06-23T20:28:46.799Z,71.90
2017-06-23T20:31:15.141Z,71.80
2017-06-23T20:33:43.522Z,74.20
2017-06-23T20:36:11.794Z,74.10
2017-06-23T20:38:40.184Z,73.60
2017-06-23T20:41:08.459Z,72.70
2017-06-23T20:43:36.878Z,73.60
2017-06-23T20:46:05.210Z,75.40
2017-06-23T20:48:33.599Z,75.10
2017-06-23T20:51:02.654Z,77.10
2017-06-23T20:53:30.942Z,76.20
2017-06-23T20:55:59.250Z,76.20
2017-06-23T20:58:28.337Z,78.00
2017-06-23T21:00:56.711Z,77.90
2017-06-23T21:03:24.981Z,79.30
2017-06-23T21:05:53.312Z,79.00
2017-06-23T21:08:21.599Z,79.50
2017-06-23T21:10:49.931Z,79.90
2017-06-23T21:13:18.242Z,80.60
2017-06-23T21:15:46.679Z,80.50
2017-06-23T21:18:14.990Z,80.00
2017-06-23T21:20:43.316Z,78.90
2017-06-23T21:23:11.599Z,79.40
2017-06-23T21:25:39.878Z,80.10
2017-06-23T21:28:08.210Z,80.00
2017-06-23T21:30:36.496Z,80.70
2017-06-23T21:33:04.943Z,80.80
2017-06-23T21:35:33.446Z,78.50
2017-06-23T21:38:01.797Z,78.10
2017-06-23T21:40:41.905Z,78.00
2017-06-23T21:43:10.255Z,78.90
2017-06-23T21:45:38.540Z,80.10
2017-06-23T21:48:07.648Z,81.50
2017-06-23T21:50:36.042Z,81.70
2017-06-23T21:53:04.328Z,81.40
2017-06-23T21:55:32.682Z,82.20
2017-06-23T21:58:00.991Z,81.20
2017-06-23T22:00:29.373Z,82.10
2017-06-23T22:02:57.754Z,81.90
2017-06-23T22:05:26.022Z,81.80
2017-06-23T22:07:54.413Z,81.80
2017-06-23T22:10:22.700Z,82.80
2017-06-23T22:12:50.982Z,82.70
2017-06-23T22:15:20.141Z,82.30
2017-06-23T22:17:48.442Z,82.30
2017-06-23T22:20:16.814Z,82.40
2017-06-23T22:22:45.129Z,82.90
2017-06-23T22:25:13.432Z,83.50
2017-06-23T22:27:42.550Z,83.80
2017-06-23T22:30:10.824Z,83.40
2017-06-23T22:32:39.170Z,83.40
2017-06-23T22:35:07.502Z,82.90
2017-06-23T22:37:35.778Z,83.10
2017-06-23T22:40:04.046Z,81.70
2017-06-23T22:42:32.387Z,82.60
2017-06-23T22:45:00.755Z,83.50
2017-06-23T22:47:29.128Z,82.60
2017-06-23T22:49:58.307Z,82.50
2017-06-23T22:52:26.582Z,82.50
2017-06-23T22:54:55.305Z,83.10
2017-06-23T22:57:29.706Z,83.10
2017-06-23T22:59:58.081Z,84.10
2017-06-23T23:02:26.456Z,83.80
2017-06-23T23:04:54.754Z,84.00
2017-06-23T23:07:23.825Z,83.70
2017-06-23T23:09:52.149Z,83.60
2017-06-23T23:12:20.421Z,84.50
2017-06-23T23:14:48.757Z,82.90
2017-06-23T23:17:17.080Z,82.80
2017-06-23T23:19:45.353Z,81.50
2017-06-23T23:22:13.692Z,80.40
2017-06-23T23:24:42.074Z,79.10
2017-06-23T23:27:10.355Z,80.50
2017-06-23T23:29:38.634Z,79.40
2017-06-23T23:32:06.998Z,76.80
2017-06-23T23:34:35.326Z,75.90
2017-06-23T23:37:03.609Z,74.10
2017-06-23T23:39:32.009Z,74.70
2017-06-23T23:42:00.386Z,74.20
2017-06-23T23:44:28.666Z,74.40
2017-06-23T23:46:57.041Z,73.10
2017-06-23T23:49:25.317Z,73.10
2017-06-23T23:51:53.638Z,72.20
2017-06-23T23:54:21.970Z,72.20
2017-06-23T23:56:50.286Z,72.20
2017-06-23T23:59:18.614Z,72.10
